createdAt,value
2022-12-19T00:00:49.894Z,993.40
2022-12-19T00:01:50.046Z,993.41
2022-12-19T00:02:50.027Z,993.42
2022-12-19T00:03:49.897Z,993.40
2022-12-19T00:04:49.830Z,993.41
2022-12-19T00:05:49.832Z,993.39
2022-12-19T00:06:49.838Z,993.39
2022-12-19T00:07:49.861Z,993.37
2022-12-19T00:08:49.794Z,993.41
2022-12-19T00:09:49.794Z,993.39
2022-12-19T00:10:49.797Z,993.36
2022-12-19T00:11:50.773Z,993.37
2022-12-19T00:12:49.769Z,993.38
2022-12-19T00:13:49.760Z,993.37
2022-12-19T00:14:49.730Z,993.34
2022-12-19T00:15:49.794Z,993.37
2022-12-19T00:16:49.732Z,993.34
2022-12-19T00:17:49.711Z,993.32
2022-12-19T00:18:49.697Z,993.32
2022-12-19T00:19:49.700Z,993.32
2022-12-19T00:20:49.673Z,993.32
2022-12-19T00:21:49.683Z,993.32
2022-12-19T00:22:49.808Z,993.29
2022-12-19T00:23:49.647Z,993.27
2022-12-19T00:24:49.648Z,993.28
2022-12-19T00:25:49.620Z,993.28
2022-12-19T00:26:49.667Z,993.26
2022-12-19T00:27:49.607Z,993.26
2022-12-19T00:28:49.606Z,993.30
2022-12-19T00:29:49.583Z,993.27
2022-12-19T00:30:49.595Z,993.27
2022-12-19T00:31:49.704Z,993.23
2022-12-19T00:32:49.592Z,993.19
2022-12-19T00:33:49.538Z,993.18
2022-12-19T00:34:49.538Z,993.16
2022-12-19T00:35:49.535Z,993.18
2022-12-19T00:36:49.536Z,993.20
2022-12-19T00:37:49.916Z,993.21
2022-12-19T00:38:49.517Z,993.20
2022-12-19T00:39:49.470Z,993.18
2022-12-19T00:40:49.474Z,993.21
2022-12-19T00:41:49.454Z,993.18
2022-12-19T00:42:53.544Z,993.18
2022-12-19T00:43:49.433Z,993.20
2022-12-19T00:44:49.466Z,993.19
2022-12-19T00:45:49.442Z,993.19
2022-12-19T00:46:53.007Z,993.18
2022-12-19T00:47:49.387Z,993.19
2022-12-19T00:48:49.389Z,993.20
2022-12-19T00:49:49.369Z,993.20
2022-12-19T00:50:49.397Z,993.20
2022-12-19T00:51:49.355Z,993.20
2022-12-19T00:52:49.361Z,993.18
2022-12-19T00:53:49.336Z,993.20
2022-12-19T00:54:49.439Z,993.17
2022-12-19T00:55:49.300Z,993.15
2022-12-19T00:56:49.335Z,993.12
2022-12-19T00:57:49.280Z,993.10
2022-12-19T00:58:49.282Z,993.11
2022-12-19T00:59:49.258Z,993.08
2022-12-19T01:00:49.390Z,993.09
2022-12-19T01:01:49.508Z,993.10
2022-12-19T01:02:49.387Z,993.10
2022-12-19T01:04:25.979Z,993.11
2022-12-19T01:04:49.232Z,993.10
2022-12-19T01:05:49.195Z,993.12
2022-12-19T01:06:49.215Z,993.12
2022-12-19T01:07:49.169Z,993.16
2022-12-19T01:08:49.184Z,993.16
2022-12-19T01:09:49.151Z,993.15
2022-12-19T01:10:49.153Z,993.13
2022-12-19T01:11:49.130Z,993.12
2022-12-19T01:12:49.156Z,993.13
2022-12-19T01:13:49.110Z,993.05
2022-12-19T01:14:49.118Z,993.06
2022-12-19T01:15:49.091Z,993.06
2022-12-19T01:16:49.135Z,993.08
2022-12-19T01:17:49.070Z,993.11
2022-12-19T01:18:49.091Z,993.12
2022-12-19T01:19:49.052Z,993.15
2022-12-19T01:20:49.061Z,993.14
2022-12-19T01:21:49.050Z,993.15
2022-12-19T01:22:49.065Z,993.15
2022-12-19T01:23:49.008Z,993.18
2022-12-19T01:24:49.020Z,993.20
2022-12-19T01:25:48.993Z,993.18
2022-12-19T01:26:49.009Z,993.19
2022-12-19T01:27:48.971Z,993.18
2022-12-19T01:28:49.003Z,993.19
2022-12-19T01:29:52.911Z,993.21
2022-12-19T01:30:48.952Z,993.21
2022-12-19T01:31:48.953Z,993.22
2022-12-19T01:32:48.939Z,993.22
2022-12-19T01:33:48.914Z,993.23
2022-12-19T01:34:48.948Z,993.22
2022-12-19T01:35:48.892Z,993.25
2022-12-19T01:36:48.918Z,993.24
2022-12-19T01:37:48.869Z,993.23
2022-12-19T01:38:48.872Z,993.23
2022-12-19T01:39:48.871Z,993.23
2022-12-19T01:40:48.853Z,993.25
2022-12-19T01:41:48.849Z,993.23
2022-12-19T01:42:48.835Z,993.24
2022-12-19T01:43:48.806Z,993.22
2022-12-19T01:44:48.812Z,993.19
2022-12-19T01:45:48.898Z,993.18
2022-12-19T01:46:48.793Z,993.19
2022-12-19T01:47:48.785Z,993.15
2022-12-19T01:48:48.769Z,993.14
2022-12-19T01:49:48.743Z,993.11
2022-12-19T01:50:58.282Z,993.12
2022-12-19T01:51:48.752Z,993.09
2022-12-19T01:52:48.734Z,993.04
2022-12-19T01:53:49.735Z,993.05
2022-12-19T01:54:48.722Z,993.01
2022-12-19T01:55:48.688Z,993.01
2022-12-19T01:56:48.679Z,993.01
2022-12-19T01:57:48.634Z,993.01
2022-12-19T01:58:48.643Z,992.96
2022-12-19T01:59:48.610Z,992.92
2022-12-19T02:00:48.670Z,992.92
2022-12-19T02:01:51.651Z,992.92
2022-12-19T02:02:48.734Z,992.90
2022-12-19T02:03:48.567Z,992.88
2022-12-19T02:04:48.586Z,992.87
2022-12-19T02:05:48.547Z,992.87
2022-12-19T02:06:48.556Z,992.87
2022-12-19T02:07:48.550Z,992.82
2022-12-19T02:08:48.545Z,992.83
2022-12-19T02:09:50.566Z,992.87
2022-12-19T02:10:48.520Z,992.84
2022-12-19T02:11:48.500Z,992.86
2022-12-19T02:12:48.557Z,992.83
2022-12-19T02:13:48.471Z,992.83
2022-12-19T02:14:48.478Z,992.85
2022-12-19T02:15:48.456Z,992.84
2022-12-19T02:16:48.515Z,992.79
2022-12-19T02:17:52.770Z,992.86
2022-12-19T02:18:48.463Z,992.86
2022-12-19T02:19:48.411Z,992.85
2022-12-19T02:20:48.430Z,992.85
2022-12-19T02:21:48.390Z,992.79
2022-12-19T02:22:48.439Z,992.78
2022-12-19T02:23:48.372Z,992.80
2022-12-19T02:24:48.393Z,992.80
2022-12-19T02:25:48.371Z,992.80
2022-12-19T02:26:48.364Z,992.80
2022-12-19T02:27:48.345Z,992.83
2022-12-19T02:28:48.393Z,992.81
2022-12-19T02:29:48.325Z,992.82
2022-12-19T02:30:48.324Z,992.77
2022-12-19T02:31:48.337Z,992.76
2022-12-19T02:32:48.315Z,992.73
2022-12-19T02:33:48.280Z,992.72
2022-12-19T02:34:48.308Z,992.74
2022-12-19T02:35:48.261Z,992.75
2022-12-19T02:36:48.444Z,992.72
2022-12-19T02:37:48.238Z,992.70
2022-12-19T02:38:48.246Z,992.66
2022-12-19T02:39:48.246Z,992.62
2022-12-19T02:40:48.565Z,992.61
2022-12-19T02:41:48.214Z,992.56
2022-12-19T02:42:48.208Z,992.55
2022-12-19T02:43:48.283Z,992.53
2022-12-19T02:44:48.185Z,992.51
2022-12-19T02:45:48.236Z,992.44
2022-12-19T02:46:48.170Z,992.43
2022-12-19T02:47:48.162Z,992.37
2022-12-19T02:48:48.168Z,992.36
2022-12-19T02:49:48.124Z,992.35
2022-12-19T02:50:48.441Z,992.33
2022-12-19T02:51:48.101Z,992.28
2022-12-19T02:52:48.102Z,992.27
2022-12-19T02:53:48.101Z,992.27
2022-12-19T02:54:48.086Z,992.23
2022-12-19T02:55:48.063Z,992.27
2022-12-19T02:56:48.071Z,992.26
2022-12-19T02:57:48.046Z,992.23
2022-12-19T02:58:48.043Z,992.24
2022-12-19T02:59:48.051Z,992.21
2022-12-19T03:00:48.024Z,992.18
2022-12-19T03:01:48.099Z,992.16
2022-12-19T03:02:55.993Z,992.11
2022-12-19T03:03:47.992Z,992.13
2022-12-19T03:04:48.004Z,992.13
2022-12-19T03:05:47.957Z,992.11
2022-12-19T03:06:47.991Z,992.11
2022-12-19T03:07:47.937Z,992.08
2022-12-19T03:08:47.951Z,992.12
2022-12-19T03:09:47.943Z,992.07
2022-12-19T03:10:47.915Z,992.06
2022-12-19T03:11:47.895Z,992.04
2022-12-19T03:12:47.895Z,992.03
2022-12-19T03:13:47.874Z,992.01
2022-12-19T03:14:47.883Z,991.98
2022-12-19T03:15:47.876Z,991.98
2022-12-19T03:16:47.971Z,991.96
2022-12-19T03:17:47.834Z,991.95
2022-12-19T03:18:47.844Z,991.97
2022-12-19T03:19:47.816Z,991.95
2022-12-19T03:20:47.826Z,991.97
2022-12-19T03:21:47.814Z,991.97
2022-12-19T03:22:47.798Z,991.98
2022-12-19T03:23:47.776Z,991.93
2022-12-19T03:24:47.777Z,991.86
2022-12-19T03:25:47.758Z,991.84
2022-12-19T03:26:47.767Z,991.87
2022-12-19T03:27:47.799Z,991.88
2022-12-19T03:28:47.741Z,991.91
2022-12-19T03:29:47.711Z,991.91
2022-12-19T03:30:47.754Z,991.92
2022-12-19T03:31:47.695Z,991.93
2022-12-19T03:32:47.698Z,991.94
2022-12-19T03:33:47.693Z,991.92
2022-12-19T03:34:47.683Z,991.91
2022-12-19T03:35:47.674Z,991.94
2022-12-19T03:36:47.653Z,991.98
2022-12-19T03:37:47.637Z,992.01
2022-12-19T03:38:47.647Z,992.02
2022-12-19T03:39:47.634Z,992.04
2022-12-19T03:40:47.618Z,991.99
2022-12-19T03:41:47.613Z,991.92
2022-12-19T03:42:47.608Z,991.86
2022-12-19T03:43:47.576Z,991.84
2022-12-19T03:44:47.578Z,991.82
2022-12-19T03:45:47.591Z,991.84
2022-12-19T03:46:47.566Z,991.83
2022-12-19T03:47:47.566Z,991.86
2022-12-19T03:48:47.573Z,991.86
2022-12-19T03:49:47.526Z,991.86
2022-12-19T03:50:47.523Z,991.85
2022-12-19T03:51:47.502Z,991.81
2022-12-19T03:52:47.505Z,991.80
2022-12-19T03:53:47.522Z,991.78
2022-12-19T03:54:47.496Z,991.76
2022-12-19T03:55:47.485Z,991.73
2022-12-19T03:56:47.458Z,991.72
2022-12-19T03:57:47.445Z,991.69
2022-12-19T03:58:47.461Z,991.64
2022-12-19T03:59:47.416Z,991.64
2022-12-19T04:00:47.539Z,991.65
2022-12-19T04:01:47.514Z,991.62
2022-12-19T04:02:47.419Z,991.66
2022-12-19T04:03:47.448Z,991.66
2022-12-19T04:04:47.385Z,991.66
2022-12-19T04:05:47.364Z,991.72
2022-12-19T04:06:47.358Z,991.70
2022-12-19T04:07:47.358Z,991.68
2022-12-19T04:08:47.348Z,991.64
2022-12-19T04:09:47.330Z,991.58
2022-12-19T04:10:47.339Z,991.57
2022-12-19T04:11:47.304Z,991.57
2022-12-19T04:12:47.323Z,991.50
2022-12-19T04:13:47.295Z,991.50
2022-12-19T04:14:47.280Z,991.48
2022-12-19T04:15:47.298Z,991.52
2022-12-19T04:16:47.261Z,991.47
2022-12-19T04:17:47.238Z,991.49
2022-12-19T04:18:47.296Z,991.47
2022-12-19T04:19:47.221Z,991.46
2022-12-19T04:20:47.234Z,991.49
2022-12-19T04:21:47.198Z,991.50
2022-12-19T04:22:47.229Z,991.52
2022-12-19T04:23:47.176Z,991.53
2022-12-19T04:24:47.187Z,991.53
2022-12-19T04:25:47.155Z,991.48
2022-12-19T04:26:47.164Z,991.46
2022-12-19T04:27:47.144Z,991.44
2022-12-19T04:28:47.160Z,991.42
2022-12-19T04:29:47.142Z,991.42
2022-12-19T04:30:47.139Z,991.45
2022-12-19T04:31:47.095Z,991.43
2022-12-19T04:32:47.113Z,991.42
2022-12-19T04:33:47.076Z,991.43
2022-12-19T04:34:47.098Z,991.43
2022-12-19T04:35:47.079Z,991.47
2022-12-19T04:36:47.061Z,991.49
2022-12-19T04:37:47.057Z,991.48
2022-12-19T04:38:47.028Z,991.49
2022-12-19T04:39:47.056Z,991.44
2022-12-19T04:40:47.004Z,991.46
2022-12-19T04:41:47.054Z,991.40
2022-12-19T04:42:46.981Z,991.41
2022-12-19T04:43:46.988Z,991.42
2022-12-19T04:44:46.962Z,991.42
2022-12-19T04:45:46.986Z,991.40
2022-12-19T04:46:47.009Z,991.31
2022-12-19T04:47:46.939Z,991.29
2022-12-19T04:48:46.916Z,991.29
2022-12-19T04:49:46.920Z,991.27
2022-12-19T04:50:46.899Z,991.25
2022-12-19T04:51:46.924Z,991.22
2022-12-19T04:52:46.877Z,991.21
2022-12-19T04:53:46.890Z,991.13
2022-12-19T04:54:46.855Z,991.14
2022-12-19T04:55:46.868Z,991.13
2022-12-19T04:56:46.851Z,991.11
2022-12-19T04:57:46.868Z,991.10
2022-12-19T04:58:46.823Z,991.03
2022-12-19T04:59:46.817Z,990.99
2022-12-19T05:00:46.800Z,991.03
2022-12-19T05:01:46.938Z,991.02
2022-12-19T05:02:46.918Z,991.01
2022-12-19T05:03:51.286Z,991.02
2022-12-19T05:04:46.765Z,990.97
2022-12-19T05:05:46.761Z,990.99
2022-12-19T05:06:46.744Z,990.97
2022-12-19T05:07:46.739Z,991.02
2022-12-19T05:08:46.715Z,991.04
2022-12-19T05:09:46.743Z,991.02
2022-12-19T05:10:46.697Z,991.02
2022-12-19T05:11:46.702Z,991.02
2022-12-19T05:12:46.719Z,990.99
2022-12-19T05:13:46.681Z,990.94
2022-12-19T05:14:46.654Z,990.96
2022-12-19T05:15:46.682Z,990.94
2022-12-19T05:16:46.636Z,991.01
2022-12-19T05:17:46.646Z,990.97
2022-12-19T05:18:46.619Z,990.92
2022-12-19T05:19:46.616Z,990.98
2022-12-19T05:20:46.538Z,990.96
2022-12-19T05:21:46.569Z,990.96
2022-12-19T05:22:46.521Z,990.99
2022-12-19T05:23:46.534Z,991.01
2022-12-19T05:24:46.500Z,990.95
2022-12-19T05:25:46.509Z,991.01
2022-12-19T05:26:46.508Z,990.95
2022-12-19T05:27:46.523Z,990.94
2022-12-19T05:28:46.464Z,990.88
2022-12-19T05:29:46.474Z,990.83
2022-12-19T05:30:51.920Z,990.77
2022-12-19T05:31:46.552Z,990.74
2022-12-19T05:32:46.427Z,990.78
2022-12-19T05:33:46.454Z,990.74
2022-12-19T05:34:46.397Z,990.72
2022-12-19T05:35:46.398Z,990.79
2022-12-19T05:36:46.375Z,990.83
2022-12-19T05:37:46.386Z,990.79
2022-12-19T05:38:46.354Z,990.78
2022-12-19T05:39:46.386Z,990.79
2022-12-19T05:40:46.337Z,990.84
2022-12-19T05:41:49.031Z,990.84
2022-12-19T05:42:46.315Z,990.85
2022-12-19T05:43:46.368Z,990.83
2022-12-19T05:44:46.345Z,990.88
2022-12-19T05:45:46.383Z,990.87
2022-12-19T05:46:46.507Z,990.85
2022-12-19T05:47:46.346Z,990.84
2022-12-19T05:48:46.328Z,990.82
2022-12-19T05:49:46.316Z,990.79
2022-12-19T05:50:46.293Z,990.82
2022-12-19T05:51:46.315Z,990.84
2022-12-19T05:52:46.270Z,990.83
2022-12-19T05:53:46.274Z,990.86
2022-12-19T05:54:46.247Z,990.87
2022-12-19T05:55:46.258Z,990.84
2022-12-19T05:56:46.242Z,990.86
2022-12-19T05:57:46.265Z,990.86
2022-12-19T05:58:46.188Z,990.87
2022-12-19T05:59:46.163Z,990.87
2022-12-19T06:00:46.241Z,990.86
2022-12-19T06:01:46.425Z,990.81
2022-12-19T06:02:46.341Z,990.86
2022-12-19T06:03:46.267Z,990.81
2022-12-19T06:04:46.151Z,990.80
2022-12-19T06:05:46.150Z,990.82
2022-12-19T06:06:46.161Z,990.80
2022-12-19T06:07:46.132Z,990.80
2022-12-19T06:08:46.111Z,990.82
2022-12-19T06:09:46.114Z,990.83
2022-12-19T06:10:46.094Z,990.80
2022-12-19T06:11:46.120Z,990.80
2022-12-19T06:12:46.080Z,990.81
2022-12-19T06:13:46.067Z,990.81
2022-12-19T06:14:46.044Z,990.77
2022-12-19T06:15:46.048Z,990.72
2022-12-19T06:16:46.026Z,990.65
2022-12-19T06:17:46.051Z,990.61
2022-12-19T06:18:46.131Z,990.61
2022-12-19T06:19:45.960Z,990.73
2022-12-19T06:20:45.931Z,990.70
2022-12-19T06:21:48.585Z,990.75
2022-12-19T06:22:45.923Z,990.76
2022-12-19T06:23:45.939Z,990.77
2022-12-19T06:24:45.891Z,990.76
2022-12-19T06:25:45.920Z,990.72
2022-12-19T06:26:45.888Z,990.73
2022-12-19T06:27:45.878Z,990.71
2022-12-19T06:28:45.854Z,990.73
2022-12-19T06:29:45.876Z,990.70
2022-12-19T06:30:45.831Z,990.74
2022-12-19T06:31:45.931Z,990.74
2022-12-19T06:32:45.833Z,990.79
2022-12-19T06:33:45.823Z,990.75
2022-12-19T06:35:45.819Z,990.75
2022-12-19T06:36:45.772Z,990.74
2022-12-19T06:37:45.775Z,990.72
2022-12-19T06:38:45.749Z,990.70
2022-12-19T06:39:45.764Z,990.67
2022-12-19T06:40:45.771Z,990.70
2022-12-19T06:41:45.782Z,990.74
2022-12-19T06:42:45.716Z,990.72
2022-12-19T06:43:49.177Z,990.74
2022-12-19T06:44:45.695Z,990.79
2022-12-19T06:45:45.802Z,990.78
2022-12-19T06:46:45.759Z,990.77
2022-12-19T06:47:45.733Z,990.80
2022-12-19T06:48:45.702Z,990.80
2022-12-19T06:49:45.716Z,990.82
2022-12-19T06:50:45.687Z,990.86
2022-12-19T06:51:45.718Z,990.83
2022-12-19T06:52:45.660Z,990.81
2022-12-19T06:53:45.666Z,990.90
2022-12-19T06:54:45.667Z,990.90
2022-12-19T06:55:45.657Z,990.93
2022-12-19T06:56:45.645Z,990.97
2022-12-19T06:57:45.654Z,990.97
2022-12-19T06:58:45.623Z,990.93
2022-12-19T06:59:45.610Z,990.92
2022-12-19T07:00:45.602Z,990.87
2022-12-19T07:01:45.705Z,990.91
2022-12-19T07:02:45.865Z,990.91
2022-12-19T07:03:45.570Z,990.90
2022-12-19T07:04:45.560Z,990.88
2022-12-19T07:05:45.560Z,990.87
2022-12-19T07:06:49.028Z,990.84
2022-12-19T07:07:45.538Z,990.88
2022-12-19T07:08:45.567Z,990.82
2022-12-19T07:09:45.551Z,990.85
2022-12-19T07:10:51.539Z,990.87
2022-12-19T07:11:45.492Z,990.83
2022-12-19T07:12:45.462Z,990.84
2022-12-19T07:13:45.486Z,990.84
2022-12-19T07:14:50.214Z,990.84
2022-12-19T07:15:45.477Z,990.80
2022-12-19T07:16:45.496Z,990.79
2022-12-19T07:17:45.434Z,990.86
2022-12-19T07:18:45.418Z,990.81
2022-12-19T07:19:45.409Z,990.84
2022-12-19T07:20:45.562Z,990.83
2022-12-19T07:21:45.392Z,990.82
2022-12-19T07:22:45.399Z,990.81
2022-12-19T07:23:45.371Z,990.84
2022-12-19T07:24:45.364Z,990.82
2022-12-19T07:25:45.351Z,990.86
2022-12-19T07:26:45.356Z,990.82
2022-12-19T07:27:45.370Z,990.88
2022-12-19T07:28:45.307Z,990.87
2022-12-19T07:29:45.307Z,990.91
2022-12-19T07:30:45.291Z,990.92
2022-12-19T07:31:45.326Z,990.93
2022-12-19T07:32:45.309Z,990.93
2022-12-19T07:33:45.275Z,990.92
2022-12-19T07:34:45.247Z,991.04
2022-12-19T07:35:45.250Z,990.91
2022-12-19T07:36:45.231Z,990.93
2022-12-19T07:37:45.247Z,990.94
2022-12-19T07:38:45.232Z,990.92
2022-12-19T07:39:45.966Z,990.95
2022-12-19T07:40:45.185Z,990.85
2022-12-19T07:41:45.184Z,990.94
2022-12-19T07:42:45.175Z,990.93
2022-12-19T07:43:45.167Z,990.94
2022-12-19T07:44:45.174Z,990.98
2022-12-19T07:45:45.276Z,990.94
2022-12-19T07:46:45.142Z,990.95
2022-12-19T07:47:45.138Z,990.98
2022-12-19T07:48:45.105Z,990.97
2022-12-19T07:49:45.132Z,991.03
2022-12-19T07:50:45.112Z,991.01
2022-12-19T07:51:45.097Z,991.00
2022-12-19T07:52:45.063Z,991.07
2022-12-19T07:53:45.072Z,991.03
2022-12-19T07:54:45.048Z,991.00
2022-12-19T07:55:45.051Z,991.04
2022-12-19T07:56:45.061Z,991.03
2022-12-19T07:57:45.039Z,991.01
2022-12-19T07:58:45.068Z,990.94
2022-12-19T07:59:45.025Z,991.02
2022-12-19T08:00:45.001Z,990.92
2022-12-19T08:01:45.156Z,990.88
2022-12-19T08:02:45.161Z,990.86
2022-12-19T08:03:44.992Z,990.83
2022-12-19T08:04:44.946Z,990.87
2022-12-19T08:05:44.952Z,990.86
2022-12-19T08:06:45.126Z,990.88
2022-12-19T08:07:44.992Z,990.81
2022-12-19T08:08:44.907Z,990.82
2022-12-19T08:09:44.943Z,990.90
2022-12-19T08:10:44.900Z,990.93
2022-12-19T08:11:44.902Z,990.86
2022-12-19T08:12:44.877Z,990.83
2022-12-19T08:13:46.928Z,990.81
2022-12-19T08:14:44.866Z,990.93
2022-12-19T08:15:44.880Z,990.87
2022-12-19T08:17:18.835Z,990.88
2022-12-19T08:17:44.987Z,990.88
2022-12-19T08:18:44.814Z,990.94
2022-12-19T08:19:44.818Z,990.90
2022-12-19T08:20:44.792Z,990.93
2022-12-19T08:21:44.816Z,990.89
2022-12-19T08:22:44.776Z,990.92
2022-12-19T08:23:44.807Z,990.83
2022-12-19T08:24:44.763Z,990.86
2022-12-19T08:25:44.799Z,990.88
2022-12-19T08:26:47.696Z,990.97
2022-12-19T08:27:44.763Z,990.89
2022-12-19T08:28:44.749Z,990.95
2022-12-19T08:29:44.763Z,991.00
2022-12-19T08:30:44.792Z,991.01
2022-12-19T08:31:44.709Z,991.00
2022-12-19T08:32:44.678Z,991.12
2022-12-19T08:33:44.677Z,991.11
2022-12-19T08:34:44.645Z,991.16
2022-12-19T08:35:44.654Z,991.16
2022-12-19T08:36:44.679Z,991.15
2022-12-19T08:37:44.654Z,991.09
2022-12-19T08:38:44.560Z,991.15
2022-12-19T08:39:44.629Z,991.10
2022-12-19T08:40:47.503Z,991.05
2022-12-19T08:41:44.623Z,991.06
2022-12-19T08:42:44.568Z,991.06
2022-12-19T08:43:44.577Z,991.01
2022-12-19T08:44:44.504Z,991.01
2022-12-19T08:45:44.577Z,990.98
2022-12-19T08:46:49.726Z,990.99
2022-12-19T08:47:44.508Z,990.98
2022-12-19T08:48:44.485Z,990.95
2022-12-19T08:49:44.458Z,990.88
2022-12-19T08:50:44.495Z,990.92
2022-12-19T08:51:44.514Z,990.88
2022-12-19T08:52:44.451Z,990.89
2022-12-19T08:53:44.442Z,990.81
2022-12-19T08:54:44.428Z,990.83
2022-12-19T08:55:44.389Z,990.78
2022-12-19T08:56:46.837Z,990.80
2022-12-19T08:57:44.366Z,990.80
2022-12-19T08:58:44.375Z,990.82
2022-12-19T08:59:44.376Z,990.74
2022-12-19T09:00:47.778Z,990.75
2022-12-19T09:01:44.459Z,990.75
2022-12-19T09:02:44.540Z,990.68
2022-12-19T09:03:49.028Z,990.71
2022-12-19T09:06:03.332Z,990.73
2022-12-19T09:06:19.399Z,990.72
2022-12-19T09:06:44.343Z,990.67
2022-12-19T09:07:44.278Z,990.68
2022-12-19T09:08:44.273Z,990.64
2022-12-19T09:09:44.260Z,990.63
2022-12-19T09:10:44.245Z,990.68
2022-12-19T09:11:46.660Z,990.63
2022-12-19T09:12:44.238Z,990.62
2022-12-19T09:13:44.205Z,990.65
2022-12-19T09:14:44.359Z,990.70
2022-12-19T09:15:44.204Z,990.73
2022-12-19T09:16:44.256Z,990.76
2022-12-19T09:17:44.172Z,990.79
2022-12-19T09:18:48.491Z,990.82
2022-12-19T09:19:47.906Z,990.74
2022-12-19T09:20:44.170Z,990.79
2022-12-19T09:21:44.158Z,990.79
2022-12-19T09:22:44.171Z,990.71
2022-12-19T09:23:44.095Z,990.73
2022-12-19T09:24:44.195Z,990.71
2022-12-19T09:25:44.091Z,990.70
2022-12-19T09:26:44.124Z,990.72
2022-12-19T09:28:25.175Z,990.67
2022-12-19T09:28:44.108Z,990.68
2022-12-19T09:29:44.058Z,990.69
2022-12-19T09:30:44.108Z,990.66
2022-12-19T09:31:44.027Z,990.65
2022-12-19T09:32:44.028Z,990.65
2022-12-19T09:33:44.294Z,990.62
2022-12-19T09:34:44.057Z,990.63
2022-12-19T09:35:43.980Z,990.61
2022-12-19T09:36:43.993Z,990.56
2022-12-19T09:37:43.964Z,990.62
2022-12-19T09:38:43.968Z,990.53
2022-12-19T09:39:43.952Z,990.55
2022-12-19T09:40:44.024Z,990.54
2022-12-19T09:41:43.975Z,990.56
2022-12-19T09:42:43.994Z,990.52
2022-12-19T09:43:43.960Z,990.49
2022-12-19T09:44:43.965Z,990.54
2022-12-19T09:45:43.901Z,990.55
2022-12-19T09:46:44.021Z,990.55
2022-12-19T09:47:43.861Z,990.58
2022-12-19T09:48:46.908Z,990.61
2022-12-19T09:49:43.855Z,990.60
2022-12-19T09:50:43.877Z,990.56
2022-12-19T09:51:43.820Z,990.60
2022-12-19T09:52:43.844Z,990.59
2022-12-19T09:53:43.805Z,990.59
2022-12-19T09:54:43.807Z,990.56
2022-12-19T09:55:43.798Z,990.55
2022-12-19T09:56:46.217Z,990.54
2022-12-19T09:57:43.764Z,990.55
2022-12-19T09:58:43.770Z,990.58
2022-12-19T09:59:49.611Z,990.52
2022-12-19T10:00:43.780Z,990.58
2022-12-19T10:01:43.798Z,990.54
2022-12-19T10:02:43.908Z,990.56
2022-12-19T10:03:43.784Z,990.54
2022-12-19T10:04:43.708Z,990.53
2022-12-19T10:06:58.113Z,990.50
2022-12-19T10:07:48.338Z,990.49
2022-12-19T10:08:09.583Z,990.48
2022-12-19T10:09:15.272Z,990.50
2022-12-19T10:12:44.542Z,990.48
2022-12-19T10:12:58.416Z,990.42
2022-12-19T10:13:12.837Z,990.28
2022-12-19T10:14:03.588Z,990.29
2022-12-19T10:15:03.514Z,990.28
2022-12-19T10:16:03.566Z,990.32
2022-12-19T10:17:23.648Z,990.30
2022-12-19T10:18:03.505Z,990.29
2022-12-19T10:19:03.472Z,990.31
2022-12-19T10:20:03.493Z,990.27
2022-12-19T10:21:03.471Z,990.28
2022-12-19T10:22:19.619Z,990.29
2022-12-19T10:23:03.439Z,990.22
2022-12-19T10:24:03.432Z,990.22
2022-12-19T10:25:08.989Z,990.21
2022-12-19T10:26:03.449Z,990.19
2022-12-19T10:27:03.391Z,990.20
2022-12-19T10:28:03.396Z,990.16
2022-12-19T10:29:03.374Z,990.23
2022-12-19T10:30:03.389Z,990.21
2022-12-19T10:31:12.527Z,990.16
2022-12-19T10:32:03.587Z,990.17
2022-12-19T10:33:03.417Z,990.17
2022-12-19T10:34:03.354Z,990.16
2022-12-19T10:35:03.306Z,990.17
2022-12-19T10:36:03.331Z,990.23
2022-12-19T10:37:27.349Z,990.26
2022-12-19T10:38:03.328Z,990.25
2022-12-19T10:39:03.292Z,990.25
2022-12-19T10:40:03.279Z,990.24
2022-12-19T10:41:03.294Z,990.20
2022-12-19T10:42:03.295Z,990.25
2022-12-19T10:43:09.416Z,990.22
2022-12-19T10:44:03.288Z,990.19
2022-12-19T10:45:03.239Z,990.22
2022-12-19T10:46:03.245Z,990.19
2022-12-19T10:47:04.476Z,990.18
2022-12-19T10:48:03.215Z,990.17
2022-12-19T10:49:03.216Z,990.16
2022-12-19T10:50:09.292Z,990.11
2022-12-19T10:51:06.743Z,990.09
2022-12-19T10:52:03.202Z,990.12
2022-12-19T10:53:03.127Z,990.08
2022-12-19T10:54:03.145Z,990.05
2022-12-19T10:55:03.149Z,990.06
2022-12-19T10:56:03.154Z,990.00
2022-12-19T10:57:03.100Z,990.02
2022-12-19T10:58:03.123Z,990.02
2022-12-19T10:59:03.166Z,990.00
2022-12-19T11:00:03.077Z,989.98
2022-12-19T11:01:03.123Z,989.97
2022-12-19T11:02:07.162Z,989.95
2022-12-19T11:03:03.149Z,989.98
2022-12-19T11:04:03.049Z,989.90
2022-12-19T11:05:03.117Z,989.95
2022-12-19T11:06:03.014Z,989.92
2022-12-19T11:07:03.010Z,989.93
2022-12-19T11:08:03.005Z,989.88
2022-12-19T11:09:02.969Z,989.87
2022-12-19T11:10:32.192Z,989.80
2022-12-19T11:16:47.295Z,989.79
2022-12-19T11:29:54.953Z,989.78
2022-12-19T11:32:40.430Z,989.39
2022-12-19T11:33:04.652Z,989.39
2022-12-19T11:34:04.575Z,989.38
2022-12-19T11:35:04.553Z,989.36
2022-12-19T11:36:04.550Z,989.34
2022-12-19T11:37:04.526Z,989.35
2022-12-19T11:38:04.533Z,989.43
2022-12-19T11:39:04.539Z,989.38
2022-12-19T11:40:04.533Z,989.41
2022-12-19T11:41:04.488Z,989.38
2022-12-19T11:42:04.501Z,989.37
2022-12-19T11:43:42.560Z,989.34
2022-12-19T11:44:04.483Z,989.35
2022-12-19T11:45:04.395Z,989.37
2022-12-19T11:46:04.420Z,989.30
2022-12-19T11:47:04.383Z,989.33
2022-12-19T11:48:04.372Z,989.33
2022-12-19T11:49:04.366Z,989.33
2022-12-19T11:50:04.353Z,989.28
2022-12-19T11:51:04.354Z,989.29
2022-12-19T11:52:04.352Z,989.29
2022-12-19T11:53:07.759Z,989.35
2022-12-19T11:54:04.319Z,989.36
2022-12-19T11:55:04.288Z,989.41
2022-12-19T11:56:04.298Z,989.32
2022-12-19T11:57:04.311Z,989.40
2022-12-19T11:58:04.287Z,989.36
2022-12-19T11:59:04.261Z,989.37
2022-12-19T12:00:05.708Z,989.34
2022-12-19T12:01:04.286Z,989.34
2022-12-19T12:02:04.333Z,989.39
2022-12-19T12:03:04.505Z,989.41
2022-12-19T12:04:04.402Z,989.31
2022-12-19T12:05:04.250Z,989.34
2022-12-19T12:06:04.241Z,989.40
2022-12-19T12:07:04.269Z,989.43
2022-12-19T12:08:57.664Z,989.39
2022-12-19T12:20:04.369Z,989.37
2022-12-19T12:35:52.366Z,989.36
2022-12-19T12:38:24.604Z,989.39
2022-12-19T12:39:03.784Z,989.40
2022-12-19T12:40:03.692Z,989.41
2022-12-19T12:41:03.695Z,989.34
2022-12-19T12:42:03.682Z,989.33
2022-12-19T12:43:03.636Z,989.30
2022-12-19T12:44:03.685Z,989.30
2022-12-19T12:45:03.637Z,989.27
2022-12-19T12:46:03.739Z,989.23
2022-12-19T12:47:03.597Z,989.21
2022-12-19T12:48:03.631Z,989.23
2022-12-19T12:49:03.586Z,989.28
2022-12-19T12:50:03.583Z,989.20
2022-12-19T12:51:03.555Z,989.21
2022-12-19T12:52:03.517Z,989.18
2022-12-19T12:53:03.486Z,989.22
2022-12-19T12:54:03.520Z,989.20
2022-12-19T12:55:03.479Z,989.23
2022-12-19T12:56:03.868Z,989.28
2022-12-19T12:57:03.447Z,989.29
2022-12-19T12:58:03.460Z,989.31
2022-12-19T12:59:03.435Z,989.32
2022-12-19T13:00:03.446Z,989.29
2022-12-19T13:01:03.474Z,989.29
2022-12-19T13:02:03.677Z,989.30
2022-12-19T13:03:03.585Z,989.32
2022-12-19T13:04:03.392Z,989.34
2022-12-19T13:05:03.382Z,989.34
2022-12-19T13:06:03.382Z,989.33
2022-12-19T13:07:03.341Z,989.32
2022-12-19T13:08:03.372Z,989.31
2022-12-19T13:09:03.320Z,989.38
2022-12-19T13:10:03.328Z,989.34
2022-12-19T13:11:03.303Z,989.28
2022-12-19T13:12:03.314Z,989.30
2022-12-19T13:13:04.386Z,989.27
2022-12-19T13:14:03.284Z,989.33
2022-12-19T13:15:03.258Z,989.34
2022-12-19T13:16:03.334Z,989.31
2022-12-19T13:17:03.429Z,989.29